createdAt,value
2022-11-07T00:00:37.601Z,100.00
2022-11-07T00:03:04.302Z,100.00
2022-11-07T00:05:31.339Z,100.00
2022-11-07T00:07:57.878Z,100.00
2022-11-07T00:10:24.465Z,100.00
2022-11-07T00:12:51.011Z,100.00
2022-11-07T00:15:17.536Z,100.00
2022-11-07T00:17:44.111Z,100.00
2022-11-07T00:20:11.081Z,100.00
2022-11-07T00:22:37.612Z,100.00
2022-11-07T00:25:04.549Z,100.00
2022-11-07T00:27:31.212Z,100.00
2022-11-07T00:29:57.806Z,100.00
2022-11-07T00:32:24.311Z,100.00
2022-11-07T00:34:50.838Z,100.00
2022-11-07T00:37:17.368Z,100.00
2022-11-07T00:39:43.884Z,100.00
2022-11-07T00:42:10.420Z,100.00
2022-11-07T00:44:37.030Z,100.00
2022-11-07T00:47:03.763Z,100.00
2022-11-07T00:49:30.354Z,100.00
2022-11-07T00:51:56.920Z,100.00
2022-11-07T00:54:23.676Z,100.00
2022-11-07T00:56:50.208Z,100.00
2022-11-07T00:59:16.771Z,100.00
2022-11-07T01:01:43.435Z,100.00
2022-11-07T01:04:32.146Z,100.00
2022-11-07T01:06:59.447Z,100.00
2022-11-07T01:09:27.070Z,100.00
2022-11-07T01:11:53.702Z,100.00
2022-11-07T01:14:22.506Z,100.00
2022-11-07T01:16:49.235Z,100.00
2022-11-07T01:19:17.982Z,100.00
2022-11-07T01:21:44.955Z,100.00
2022-11-07T01:24:13.013Z,100.00
2022-11-07T01:26:41.072Z,100.00
2022-11-07T01:29:07.942Z,100.00
2022-11-07T01:31:34.808Z,100.00
2022-11-07T01:34:01.621Z,100.00
2022-11-07T01:36:28.259Z,100.00
2022-11-07T01:38:54.866Z,100.00
2022-11-07T01:41:31.561Z,100.00
2022-11-07T01:44:08.386Z,100.00
2022-11-07T01:46:40.176Z,100.00
2022-11-07T01:49:06.656Z,100.00
2022-11-07T01:51:47.775Z,100.00
2022-11-07T01:54:21.286Z,100.00
2022-11-07T01:56:49.308Z,100.00
2022-11-07T01:59:20.068Z,100.00
2022-11-07T02:01:46.723Z,100.00
2022-11-07T02:04:13.741Z,100.00
2022-11-07T02:06:49.839Z,100.00
2022-11-07T02:09:16.409Z,100.00
2022-11-07T02:11:43.033Z,100.00
2022-11-07T02:14:15.916Z,100.00
2022-11-07T02:16:43.031Z,100.00
2022-11-07T02:19:21.984Z,100.00
2022-11-07T02:21:58.411Z,100.00
2022-11-07T02:24:31.680Z,100.00
2022-11-07T02:27:00.120Z,100.00
2022-11-07T02:29:27.621Z,100.00
2022-11-07T02:32:01.383Z,100.00
2022-11-07T02:34:27.991Z,100.00
2022-11-07T02:36:54.560Z,100.00
2022-11-07T02:39:21.290Z,100.00
2022-11-07T02:41:48.366Z,100.00
2022-11-07T02:44:15.054Z,100.00
2022-11-07T02:46:41.988Z,100.00
2022-11-07T02:49:08.789Z,100.00
2022-11-07T02:51:35.379Z,100.00
2022-11-07T02:54:01.965Z,100.00
2022-11-07T02:56:28.531Z,100.00
2022-11-07T02:58:55.674Z,100.00
2022-11-07T03:01:23.041Z,100.00
2022-11-07T03:03:50.571Z,100.00
2022-11-07T03:06:21.831Z,100.00
2022-11-07T03:08:48.403Z,100.00
2022-11-07T03:11:19.640Z,100.00
2022-11-07T03:13:48.750Z,100.00
2022-11-07T03:16:16.973Z,100.00
2022-11-07T03:18:43.651Z,100.00
2022-11-07T03:21:10.132Z,100.00
2022-11-07T03:23:36.815Z,100.00
2022-11-07T03:26:04.240Z,100.00
2022-11-07T03:28:30.659Z,100.00
2022-11-07T03:31:01.244Z,100.00
2022-11-07T03:33:31.638Z,100.00
2022-11-07T03:35:58.541Z,100.00
2022-11-07T03:38:25.143Z,100.00
2022-11-07T03:40:51.683Z,100.00
2022-11-07T03:43:18.500Z,100.00
2022-11-07T03:45:45.059Z,100.00
2022-11-07T03:48:11.611Z,100.00
2022-11-07T03:50:38.113Z,100.00
2022-11-07T03:53:04.660Z,100.00
2022-11-07T03:55:31.179Z,100.00
2022-11-07T03:57:57.690Z,100.00
2022-11-07T04:00:24.254Z,100.00
2022-11-07T04:02:50.961Z,100.00
2022-11-07T04:05:17.688Z,100.00
2022-11-07T04:07:44.266Z,100.00
2022-11-07T04:10:10.846Z,100.00
2022-11-07T04:12:55.907Z,100.00
2022-11-07T04:15:41.303Z,100.00
2022-11-07T04:18:07.945Z,100.00
2022-11-07T04:20:34.843Z,100.00
2022-11-07T04:23:01.445Z,100.00
2022-11-07T04:25:46.734Z,100.00
2022-11-07T04:28:16.233Z,100.00
2022-11-07T04:30:42.788Z,100.00
2022-11-07T04:33:09.713Z,100.00
2022-11-07T04:35:36.268Z,100.00
2022-11-07T04:38:02.938Z,100.00
2022-11-07T04:40:30.620Z,100.00
2022-11-07T04:42:57.643Z,100.00
2022-11-07T04:45:24.488Z,100.00
2022-11-07T04:47:51.371Z,100.00
2022-11-07T04:50:19.712Z,100.00
2022-11-07T04:52:46.913Z,100.00
2022-11-07T04:55:39.582Z,100.00
2022-11-07T04:58:06.146Z,100.00
2022-11-07T05:00:33.118Z,100.00
2022-11-07T05:02:59.742Z,100.00
2022-11-07T05:05:26.467Z,100.00
2022-11-07T05:07:53.045Z,100.00
2022-11-07T05:10:22.898Z,100.00
2022-11-07T05:12:49.872Z,100.00
2022-11-07T05:15:17.520Z,100.00
2022-11-07T05:17:44.494Z,100.00
2022-11-07T05:20:33.523Z,100.00
2022-11-07T05:23:13.764Z,100.00
2022-11-07T05:25:53.773Z,100.00
2022-11-07T05:28:39.801Z,100.00
2022-11-07T05:31:08.879Z,100.00
2022-11-07T05:33:35.595Z,100.00
2022-11-07T05:36:10.303Z,100.00
2022-11-07T05:38:36.907Z,100.00
2022-11-07T05:41:04.449Z,100.00
2022-11-07T05:43:31.034Z,100.00
2022-11-07T05:46:01.607Z,100.00
2022-11-07T05:48:28.543Z,100.00
2022-11-07T05:50:55.068Z,100.00
2022-11-07T05:53:21.717Z,100.00
2022-11-07T05:55:48.629Z,100.00
2022-11-07T05:58:16.127Z,100.00
2022-11-07T06:00:42.626Z,100.00
2022-11-07T06:03:10.024Z,100.00
2022-11-07T06:05:41.140Z,100.00
2022-11-07T06:08:10.965Z,100.00
2022-11-07T06:10:39.022Z,100.00
2022-11-07T06:13:07.931Z,100.00
2022-11-07T06:15:36.385Z,100.00
2022-11-07T06:18:05.958Z,100.00
2022-11-07T06:20:34.021Z,100.00
2022-11-07T06:23:02.284Z,100.00
2022-11-07T06:25:29.979Z,100.00
2022-11-07T06:28:05.566Z,100.00
2022-11-07T06:30:32.590Z,100.00
2022-11-07T06:33:03.784Z,100.00
2022-11-07T06:35:31.216Z,100.00
2022-11-07T06:38:00.834Z,100.00
2022-11-07T06:40:27.385Z,100.00
2022-11-07T06:42:53.939Z,100.00
2022-11-07T06:45:20.534Z,100.00
2022-11-07T06:47:47.046Z,100.00
2022-11-07T06:50:13.635Z,100.00
2022-11-07T06:52:40.168Z,100.00
2022-11-07T06:55:07.243Z,100.00
2022-11-07T06:57:33.764Z,100.00
2022-11-07T07:00:00.371Z,100.00
2022-11-07T07:02:52.133Z,100.00
2022-11-07T07:05:17.087Z,100.00
2022-11-07T07:07:46.521Z,100.00
2022-11-07T07:10:13.280Z,100.00
2022-11-07T07:12:40.516Z,100.00
2022-11-07T07:15:07.899Z,100.00
2022-11-07T07:17:34.315Z,100.00
2022-11-07T07:20:00.851Z,100.00
2022-11-07T07:22:27.380Z,100.00
2022-11-07T07:24:53.916Z,100.00
2022-11-07T07:27:20.471Z,100.00
2022-11-07T07:29:47.643Z,100.00
2022-11-07T07:32:14.152Z,100.00
2022-11-07T07:34:40.705Z,100.00
2022-11-07T07:37:07.269Z,100.00
2022-11-07T07:39:33.892Z,100.00
2022-11-07T07:42:00.442Z,100.00
2022-11-07T07:44:28.128Z,100.00
2022-11-07T07:46:54.676Z,100.00
2022-11-07T07:49:21.193Z,100.00
2022-11-07T07:51:47.859Z,100.00
2022-11-07T07:54:14.687Z,100.00
2022-11-07T07:56:41.215Z,100.00
2022-11-07T07:59:07.758Z,100.00
2022-11-07T08:01:34.457Z,100.00
2022-11-07T08:04:02.494Z,100.00
2022-11-07T08:06:29.809Z,100.00
2022-11-07T08:08:56.395Z,100.00
2022-11-07T08:11:22.940Z,100.00
2022-11-07T08:13:49.458Z,100.00
2022-11-07T08:16:16.252Z,100.00
2022-11-07T08:18:42.830Z,100.00
2022-11-07T08:21:09.695Z,100.00
2022-11-07T08:23:36.707Z,100.00
2022-11-07T08:26:04.685Z,100.00
2022-11-07T08:28:34.679Z,100.00
2022-11-07T08:31:10.329Z,100.00
2022-11-07T08:33:36.953Z,100.00
2022-11-07T08:36:06.163Z,100.00
2022-11-07T08:38:34.598Z,100.00
2022-11-07T08:41:01.228Z,100.00
2022-11-07T08:43:27.976Z,100.00
2022-11-07T08:45:55.248Z,100.00
2022-11-07T08:48:22.459Z,100.00
2022-11-07T08:50:56.171Z,100.00
2022-11-07T08:53:24.033Z,100.00
2022-11-07T08:55:50.649Z,100.00
2022-11-07T08:58:17.507Z,100.00
2022-11-07T09:00:44.323Z,100.00
2022-11-07T09:06:01.031Z,100.00
2022-11-07T09:08:27.568Z,100.00
2022-11-07T09:10:54.417Z,100.00
2022-11-07T09:13:21.167Z,100.00
2022-11-07T09:15:51.552Z,100.00
2022-11-07T09:18:19.435Z,100.00
2022-11-07T09:20:45.893Z,100.00
2022-11-07T09:23:12.429Z,100.00
2022-11-07T09:25:38.978Z,100.00
2022-11-07T09:28:05.727Z,100.00
2022-11-07T09:30:32.721Z,100.00
2022-11-07T09:32:59.356Z,100.00
2022-11-07T09:35:26.198Z,100.00
2022-11-07T09:37:54.152Z,100.00
2022-11-07T09:40:24.619Z,100.00
2022-11-07T09:43:02.965Z,100.00
2022-11-07T09:45:31.108Z,100.00
2022-11-07T09:48:05.713Z,100.00
2022-11-07T09:50:41.464Z,100.00
2022-11-07T09:53:14.988Z,100.00
2022-11-07T09:55:51.490Z,100.00
2022-11-07T09:58:33.722Z,100.00
2022-11-07T10:01:05.952Z,100.00
2022-11-07T10:03:36.499Z,100.00
2022-11-07T10:06:24.086Z,100.00
2022-11-07T10:09:00.185Z,100.00
2022-11-07T10:11:31.273Z,100.00
2022-11-07T10:14:08.063Z,100.00
2022-11-07T10:16:47.830Z,100.00
2022-11-07T10:19:36.108Z,100.00
2022-11-07T10:22:46.272Z,100.00
2022-11-07T10:25:21.174Z,100.00
2022-11-07T10:27:55.123Z,100.00
2022-11-07T10:30:22.255Z,100.00
2022-11-07T10:33:00.994Z,100.00
2022-11-07T10:35:33.900Z,100.00
2022-11-07T10:38:04.700Z,100.00
2022-11-07T10:40:39.576Z,100.00
2022-11-07T10:43:13.751Z,98.58
2022-11-07T10:45:41.604Z,99.44
2022-11-07T10:48:08.454Z,99.64
2022-11-07T10:50:34.997Z,99.32
2022-11-07T10:53:06.378Z,97.72
2022-11-07T10:55:44.095Z,98.96
2022-11-07T10:58:21.236Z,96.63
2022-11-07T11:01:06.166Z,96.31
2022-11-07T11:03:46.265Z,100.00
2022-11-07T11:06:18.842Z,97.57
2022-11-07T11:08:47.680Z,96.33
2022-11-07T11:11:27.506Z,92.47
2022-11-07T11:14:12.421Z,93.75
2022-11-07T11:16:42.158Z,90.02
2022-11-07T11:19:48.097Z,92.02
2022-11-07T11:22:20.539Z,90.17
2022-11-07T11:24:57.753Z,91.21
2022-11-07T11:27:25.980Z,89.37
2022-11-07T11:30:08.055Z,86.30
2022-11-07T11:32:52.377Z,88.53
2022-11-07T11:35:30.952Z,89.96
2022-11-07T11:38:38.489Z,85.21
2022-11-07T11:41:17.618Z,84.43
2022-11-07T11:44:01.194Z,85.69
2022-11-07T11:46:33.395Z,87.10
2022-11-07T11:49:15.483Z,88.03
2022-11-07T11:51:52.616Z,82.46
2022-11-07T11:54:19.253Z,82.49
2022-11-07T11:56:56.948Z,83.48
2022-11-07T11:59:48.111Z,82.20
2022-11-07T12:02:36.240Z,80.40
2022-11-07T12:05:35.133Z,81.04
2022-11-07T12:08:23.612Z,80.32
2022-11-07T12:11:13.439Z,76.67
2022-11-07T12:13:55.250Z,78.49
2022-11-07T12:16:26.807Z,75.07
2022-11-07T12:19:13.576Z,75.04
2022-11-07T12:22:03.838Z,76.10
2022-11-07T12:24:53.703Z,73.84
2022-11-07T12:27:27.352Z,73.57
2022-11-07T12:30:30.732Z,76.64
2022-11-07T12:33:08.591Z,72.06
2022-11-07T12:36:00.305Z,72.08
2022-11-07T12:39:03.980Z,71.99
2022-11-07T12:41:46.158Z,71.06
2022-11-07T12:44:12.675Z,69.92
2022-11-07T12:47:08.002Z,69.61
2022-11-07T12:49:46.763Z,69.57
2022-11-07T12:52:50.565Z,68.77
2022-11-07T12:55:37.019Z,70.09
2022-11-07T12:58:08.262Z,67.64
2022-11-07T13:00:35.910Z,66.62
2022-11-07T13:03:02.383Z,69.27
2022-11-07T13:05:55.676Z,66.94
2022-11-07T13:08:59.898Z,69.71
2022-11-07T13:11:47.249Z,69.26
2022-11-07T13:14:24.431Z,71.77
2022-11-07T13:17:11.040Z,72.31
2022-11-07T13:19:41.452Z,71.01
2022-11-07T13:22:21.735Z,70.91
2022-11-07T13:25:09.412Z,69.94
2022-11-07T13:27:41.483Z,70.38
2022-11-07T13:30:22.731Z,70.08
2022-11-07T13:32:51.401Z,71.17
2022-11-07T13:35:35.501Z,73.42
2022-11-07T13:38:13.020Z,74.71
2022-11-07T13:40:48.528Z,73.98
2022-11-07T13:43:27.478Z,74.94
2022-11-07T13:45:57.897Z,76.08
2022-11-07T13:48:30.473Z,77.42
2022-11-07T13:51:12.948Z,77.06
2022-11-07T13:53:46.912Z,77.38
2022-11-07T13:56:55.021Z,77.90
2022-11-07T13:59:37.950Z,78.56
2022-11-07T14:02:05.369Z,78.23
2022-11-07T14:04:40.586Z,80.33
2022-11-07T14:07:24.839Z,81.24
2022-11-07T14:09:57.816Z,82.18
2022-11-07T14:12:25.990Z,82.80
2022-11-07T14:14:55.479Z,84.10
2022-11-07T14:17:28.589Z,86.18
2022-11-07T14:20:20.009Z,86.70
2022-11-07T14:22:50.820Z,87.51
2022-11-07T14:25:37.579Z,88.24
2022-11-07T14:28:13.691Z,88.29
2022-11-07T14:30:42.287Z,88.99
2022-11-07T14:33:19.175Z,89.38
2022-11-07T14:35:48.339Z,89.16
2022-11-07T14:38:22.513Z,89.27
2022-11-07T14:40:50.375Z,89.68
2022-11-07T14:43:20.331Z,89.83
2022-11-07T14:46:11.288Z,87.83
2022-11-07T14:48:36.015Z,87.71
2022-11-07T14:51:03.345Z,88.36
2022-11-07T14:53:42.612Z,88.24
2022-11-07T14:56:13.744Z,88.00
2022-11-07T14:58:40.495Z,87.98
2022-11-07T15:01:07.246Z,88.01
2022-11-07T15:03:37.412Z,89.07
2022-11-07T15:06:04.538Z,89.30
2022-11-07T15:08:33.894Z,90.00
2022-11-07T15:11:07.657Z,91.03
2022-11-07T15:13:34.904Z,92.18
2022-11-07T15:16:04.745Z,93.10
2022-11-07T15:18:35.663Z,94.20
2022-11-07T15:21:02.544Z,95.07
2022-11-07T15:23:34.525Z,96.07
2022-11-07T15:26:07.094Z,97.34
2022-11-07T15:28:42.970Z,97.91
2022-11-07T15:31:24.029Z,97.49
2022-11-07T15:33:55.973Z,96.89
2022-11-07T15:36:22.974Z,95.63
2022-11-07T15:38:51.097Z,98.00
2022-11-07T15:41:18.197Z,98.21
2022-11-07T15:43:44.884Z,99.51
2022-11-07T15:46:28.776Z,100.00
2022-11-07T15:48:55.408Z,100.00
2022-11-07T15:51:22.048Z,99.27
2022-11-07T15:53:48.897Z,98.35
2022-11-07T15:56:19.643Z,98.61
2022-11-07T15:58:46.326Z,98.99
2022-11-07T16:01:12.967Z,99.15
2022-11-07T16:03:39.651Z,99.28
2022-11-07T16:06:30.620Z,98.96
2022-11-07T16:08:57.913Z,99.29
2022-11-07T16:11:24.538Z,99.56
2022-11-07T16:13:59.335Z,100.00
2022-11-07T16:16:33.940Z,100.00
2022-11-07T16:19:00.685Z,100.00
2022-11-07T16:21:27.250Z,100.00
2022-11-07T16:23:53.893Z,100.00
2022-11-07T16:26:27.744Z,100.00
2022-11-07T16:28:54.905Z,100.00
2022-11-07T16:31:21.437Z,100.00
2022-11-07T16:33:48.029Z,100.00
2022-11-07T16:36:25.603Z,100.00
2022-11-07T16:38:52.822Z,100.00
2022-11-07T16:41:19.676Z,100.00
2022-11-07T16:43:47.435Z,100.00
2022-11-07T16:46:21.328Z,100.00
2022-11-07T16:48:51.306Z,100.00
2022-11-07T16:51:20.399Z,100.00
2022-11-07T16:53:47.537Z,100.00
2022-11-07T16:56:26.777Z,100.00
2022-11-07T16:58:54.627Z,100.00
2022-11-07T17:01:23.276Z,100.00
2022-11-07T17:03:50.217Z,100.00
2022-11-07T17:06:32.492Z,100.00
2022-11-07T17:09:08.667Z,100.00
2022-11-07T17:11:37.699Z,100.00
2022-11-07T17:14:04.315Z,100.00
2022-11-07T17:16:34.851Z,100.00
2022-11-07T17:19:02.075Z,100.00
2022-11-07T17:21:31.143Z,100.00
2022-11-07T17:24:00.742Z,100.00
2022-11-07T17:26:30.801Z,100.00
2022-11-07T17:28:58.772Z,100.00
2022-11-07T17:31:25.353Z,100.00
2022-11-07T17:33:51.948Z,100.00
2022-11-07T17:36:26.032Z,100.00
2022-11-07T17:38:53.087Z,100.00
2022-11-07T17:41:20.107Z,100.00
2022-11-07T17:43:47.767Z,100.00
2022-11-07T17:46:26.492Z,100.00
2022-11-07T17:48:59.176Z,100.00
2022-11-07T17:51:26.720Z,100.00
2022-11-07T17:53:54.390Z,100.00
2022-11-07T17:56:23.424Z,100.00
2022-11-07T17:58:53.780Z,100.00
2022-11-07T18:01:22.660Z,100.00
2022-11-07T18:03:51.479Z,100.00
2022-11-07T18:06:18.424Z,100.00
2022-11-07T18:08:52.066Z,100.00
2022-11-07T18:11:21.671Z,100.00
2022-11-07T18:13:52.135Z,100.00
2022-11-07T18:16:21.567Z,100.00
2022-11-07T18:18:48.173Z,100.00
2022-11-07T18:21:15.125Z,100.00
2022-11-07T18:23:42.328Z,100.00
2022-11-07T18:26:12.689Z,100.00
2022-11-07T18:28:40.364Z,100.00
2022-11-07T18:31:10.043Z,100.00
2022-11-07T18:33:36.729Z,100.00
2022-11-07T18:36:06.393Z,100.00
2022-11-07T18:38:33.324Z,100.00
2022-11-07T18:41:06.744Z,100.00
2022-11-07T18:43:35.079Z,100.00
2022-11-07T18:46:03.018Z,100.00
2022-11-07T18:48:30.639Z,100.00
2022-11-07T18:50:57.166Z,100.00
2022-11-07T18:53:24.680Z,100.00
2022-11-07T18:56:02.367Z,100.00
2022-11-07T18:58:30.042Z,100.00
2022-11-07T19:01:02.863Z,100.00
2022-11-07T19:03:30.092Z,100.00
2022-11-07T19:06:02.536Z,100.00
2022-11-07T19:08:30.850Z,100.00
2022-11-07T19:10:58.935Z,100.00
2022-11-07T19:13:26.778Z,100.00
2022-11-07T19:15:53.837Z,100.00
2022-11-07T19:18:21.618Z,100.00
2022-11-07T19:20:48.642Z,100.00
2022-11-07T19:23:15.714Z,100.00
2022-11-07T19:25:42.539Z,100.00
2022-11-07T19:28:09.613Z,100.00
2022-11-07T19:30:36.623Z,100.00
2022-11-07T19:33:03.312Z,100.00
2022-11-07T19:35:31.308Z,100.00
2022-11-07T19:37:58.631Z,100.00
2022-11-07T19:40:25.590Z,100.00
2022-11-07T19:42:53.049Z,100.00
2022-11-07T19:45:19.946Z,100.00
2022-11-07T19:47:46.506Z,100.00
2022-11-07T19:50:13.121Z,100.00
2022-11-07T19:52:39.843Z,100.00
2022-11-07T19:55:06.566Z,100.00
2022-11-07T19:57:33.225Z,100.00
2022-11-07T20:00:00.147Z,100.00
2022-11-07T20:02:32.872Z,100.00
2022-11-07T20:05:00.511Z,100.00
2022-11-07T20:07:27.071Z,100.00
2022-11-07T20:09:55.045Z,100.00
2022-11-07T20:12:21.574Z,100.00
2022-11-07T20:14:48.088Z,100.00
2022-11-07T20:17:14.660Z,100.00
2022-11-07T20:19:41.330Z,100.00
2022-11-07T20:22:08.113Z,100.00
2022-11-07T20:24:34.632Z,100.00
2022-11-07T20:27:01.172Z,100.00
2022-11-07T20:29:27.698Z,100.00
2022-11-07T20:31:54.233Z,100.00
2022-11-07T20:34:20.910Z,100.00
2022-11-07T20:36:49.066Z,100.00
2022-11-07T20:39:15.624Z,100.00
2022-11-07T20:41:42.762Z,100.00
2022-11-07T20:44:13.548Z,100.00
2022-11-07T20:46:43.857Z,100.00
2022-11-07T20:49:15.628Z,100.00
2022-11-07T20:51:43.188Z,100.00
2022-11-07T20:54:15.051Z,100.00
2022-11-07T20:56:42.617Z,100.00
2022-11-07T20:59:10.186Z,100.00
2022-11-07T21:01:37.763Z,100.00
2022-11-07T21:04:09.080Z,100.00
2022-11-07T21:06:36.131Z,100.00
2022-11-07T21:09:03.700Z,100.00
2022-11-07T21:11:30.707Z,100.00
2022-11-07T21:13:57.850Z,100.00
2022-11-07T21:16:25.400Z,100.00
2022-11-07T21:18:53.599Z,100.00
2022-11-07T21:21:23.416Z,100.00
2022-11-07T21:23:51.166Z,100.00
2022-11-07T21:26:23.904Z,100.00
2022-11-07T21:28:50.834Z,100.00
2022-11-07T21:31:23.716Z,100.00
2022-11-07T21:33:51.766Z,100.00
2022-11-07T21:36:20.672Z,100.00
2022-11-07T21:38:47.597Z,100.00
2022-11-07T21:41:15.658Z,100.00
2022-11-07T21:43:42.594Z,100.00
2022-11-07T21:46:30.761Z,100.00
2022-11-07T21:48:58.376Z,100.00
2022-11-07T21:51:30.606Z,100.00
2022-11-07T21:53:58.295Z,100.00
2022-11-07T21:56:27.188Z,100.00
2022-11-07T21:59:00.059Z,100.00
2022-11-07T22:01:28.299Z,100.00
2022-11-07T22:04:12.212Z,100.00
2022-11-07T22:06:41.898Z,100.00
2022-11-07T22:09:09.614Z,100.00
2022-11-07T22:11:36.351Z,100.00
2022-11-07T22:14:03.560Z,100.00
2022-11-07T22:16:30.439Z,100.00
2022-11-07T22:18:58.873Z,100.00
2022-11-07T22:21:25.584Z,100.00
2022-11-07T22:23:52.100Z,100.00
2022-11-07T22:26:24.314Z,100.00
2022-11-07T22:28:51.447Z,100.00
2022-11-07T22:31:22.969Z,100.00
2022-11-07T22:33:51.421Z,100.00
2022-11-07T22:36:18.357Z,100.00
2022-11-07T22:38:45.019Z,100.00
2022-11-07T22:41:18.671Z,100.00
2022-11-07T22:43:45.811Z,100.00
2022-11-07T22:46:15.004Z,100.00
2022-11-07T22:48:42.333Z,100.00
2022-11-07T22:51:14.639Z,100.00
2022-11-07T22:53:41.497Z,100.00
2022-11-07T22:56:13.774Z,100.00
2022-11-07T22:58:41.412Z,100.00
2022-11-07T23:01:36.912Z,100.00
2022-11-07T23:04:04.352Z,100.00
2022-11-07T23:06:30.872Z,100.00
2022-11-07T23:08:59.005Z,100.00
2022-11-07T23:14:16.922Z,100.00
2022-11-07T23:16:49.089Z,100.00
2022-11-07T23:19:18.469Z,100.00
2022-11-07T23:21:45.146Z,100.00
2022-11-07T23:24:12.326Z,100.00
2022-11-07T23:26:39.433Z,100.00
2022-11-07T23:29:14.341Z,100.00
2022-11-07T23:31:45.647Z,100.00
2022-11-07T23:34:13.167Z,100.00
2022-11-07T23:36:46.301Z,100.00
2022-11-07T23:39:15.686Z,100.00
2022-11-07T23:41:42.476Z,100.00
2022-11-07T23:44:10.465Z,100.00
2022-11-07T23:46:55.940Z,100.00
2022-11-07T23:49:40.831Z,100.00
2022-11-07T23:52:07.388Z,100.00
2022-11-07T23:54:52.616Z,100.00
2022-11-07T23:57:19.310Z,100.00
